Luke — CQOU — position and weather

sailwx.info

Track history (hours):
 
Tides and Currents Weather Stations Pressure Air Temp Water Temp Dewpoint Dewpoint Depression Visibility Wind Speed Wind Dir Waves Ship Positions

Luke

Last reported at 2017-Nov-20 00:30 UTC. Time now 2017-Nov-21 05:58 UTC.
Position N 58°40' W 002°58'.

Length 84 m; draft 5.2 m.

Type: Tanker. MMSI: 255802950.

Date/timePositionNaut miles runAvg speedWind from/ knotsBaromVisibWave heightAir tempDewpointWater temp
2017-Nov-20 00:30N 58°40' W 002°58'611.4
2017-Nov-20 00:00N 58°43' W 003°07'713.0
2017-Nov-19 23:29N 58°43' W 003°20'613.0
2017-Nov-19 23:00N 58°42' W 003°32'5412.5
2017-Nov-19 18:40N 58°32' W 005°14'212.6
2017-Nov-19 18:30N 58°30' W 005°16'612.2
2017-Nov-19 17:59N 58°25' W 005°23'15410.7
2017-Nov-19 03:37N 55°60' W 006°57'111.7
2017-Nov-19 03:30N 55°59' W 006°56'612.1
2017-Nov-19 03:01N 55°53' W 006°51'612.1
2017-Nov-19 02:30N 55°48' W 006°45'612.7
2017-Nov-19 02:00N 55°43' W 006°39'713.7
2017-Nov-19 01:30N 55°37' W 006°32'713.6
2017-Nov-19 01:00N 55°32' W 006°24'713.2
2017-Nov-19 00:30N 55°27' W 006°17'612.3
2017-Nov-19 00:00N 55°25' W 006°06'611.5
2017-Nov-18 23:30N 55°21' W 005°59'611.1
2017-Nov-18 23:00N 55°17' W 005°53'510.1
2017-Nov-18 22:30N 55°13' W 005°49'5 9.8
2017-Nov-18 22:00N 55°08' W 005°46'610.4
2017-Nov-18 21:28N 55°03' W 005°43'5 9.8
2017-Nov-18 20:55N 54°57' W 005°41'4 9.7
2017-Nov-18 20:30N 54°53' W 005°40'510.0
2017-Nov-18 20:00N 54°48' W 005°38'511.0
2017-Nov-18 19:30N 54°43' W 005°42'611.3
2017-Nov-18 19:00N 54°40' W 005°50'4 0.4
2017-Nov-18 08:20N 54°37' W 005°53'0 0.0
2017-Nov-18 07:44N 54°37' W 005°53'0 0.0
2017-Nov-18 01:32N 54°37' W 005°53'0 0.1
2017-Nov-18 01:27N 54°37' W 005°53'1 1.7
2017-Nov-18 00:59N 54°38' W 005°53'510.3
2017-Nov-18 00:30N 54°41' W 005°47'4 8.5
2017-Nov-18 00:00N 54°44' W 005°41'510.4
2017-Nov-17 23:30N 54°49' W 005°39'611.5
2017-Nov-17 23:00N 54°54' W 005°40'612.1
2017-Nov-17 22:30N 55°00' W 005°42'712.9
2017-Nov-17 22:00N 55°06' W 005°48'714.0
2017-Nov-17 21:30N 55°11' W 005°56'715.0
2017-Nov-17 21:00N 55°18' W 006°03'713.8
2017-Nov-17 20:30N 55°22' W 006°12'612.8
2017-Nov-17 20:01N 55°26' W 006°22'612.7
2017-Nov-17 19:31N 55°31' W 006°27'713.2
2017-Nov-17 19:00N 55°37' W 006°33'713.8
2017-Nov-17 18:30N 55°43' W 006°40'613.0
2017-Nov-17 18:00N 55°48' W 006°45'611.8
2017-Nov-17 17:30N 55°54' W 006°50'611.1
2017-Nov-17 16:59N 55°58' W 006°57'150 9.5
2017-Nov-17 01:10N 58°21' W 005°37'8 8.1
2017-Nov-17 00:07N 58°28' W 005°26'2 7.4
2017-Nov-16 23:54N 58°29' W 005°23'3 7.9
2017-Nov-16 23:29N 58°31' W 005°19'25 6.2
2017-Nov-16 19:23N 58°39' W 004°32'2 5.1
2017-Nov-16 19:00N 58°39' W 004°29'3 5.4
2017-Nov-16 18:30N 58°38' W 004°24'3 5.1
2017-Nov-16 18:00N 58°38' W 004°19'3 5.1
2017-Nov-16 17:30N 58°39' W 004°14'3 5.1
2017-Nov-16 17:00N 58°39' W 004°09'2 4.8
2017-Nov-16 16:30N 58°39' W 004°04'2 4.8
2017-Nov-16 16:00N 58°40' W 003°60'3 5.5
2017-Nov-16 15:30N 58°40' W 003°54'3 5.4
2017-Nov-16 15:00N 58°40' W 003°49'3 5.3
2017-Nov-16 14:30N 58°40' W 003°44'3 5.6
2017-Nov-16 14:00N 58°40' W 003°39'3 5.8
2017-Nov-16 13:30N 58°40' W 003°33'3 7.0
2017-Nov-16 13:00N 58°41' W 003°27'4 7.0
2017-Nov-16 12:30N 58°42' W 003°20'3 6.9
2017-Nov-16 12:00N 58°42' W 003°13'4 7.8
2017-Nov-16 11:30N 58°42' W 003°06'510.0
2017-Nov-16 11:00N 58°39' W 002°59'4 8.6
2017-Nov-16 10:30N 58°36' W 002°53'4 7.7
2017-Nov-16 10:00N 58°32' W 002°49'5 9.2
2017-Nov-16 09:30N 58°29' W 002°44'4010.0
2017-Nov-16 05:32N 57°57' W 002°00'212.1
2017-Nov-16 05:20N 57°54' W 001°58'412.7
2017-Nov-16 05:00N 57°51' W 001°53'713.1
2017-Nov-16 04:30N 57°46' W 001°46'612.9
2017-Nov-16 04:00N 57°40' W 001°40'713.0
2017-Nov-16 03:30N 57°34' W 001°35'713.1
2017-Nov-16 03:00N 57°28' W 001°33'712.8
2017-Nov-16 02:28N 57°21' W 001°32'612.7
2017-Nov-16 02:00N 57°15' W 001°31'612.5
2017-Nov-16 01:30N 57°09' W 001°30'5211.9
2017-Nov-15 21:09N 56°17' W 001°20'212.3
2017-Nov-15 21:00N 56°16' W 001°20'612.5
2017-Nov-15 20:29N 56°09' W 001°19'2213.1
2017-Nov-15 18:47N 55°47' W 001°15'413.3
2017-Nov-15 18:29N 55°43' W 001°16'613.4
2017-Nov-15 18:00N 55°37' W 001°16'713.2
2017-Nov-15 17:30N 55°30' W 001°15'612.9
2017-Nov-15 17:00N 55°24' W 001°14'612.5
2017-Nov-15 16:30N 55°17' W 001°13'612.3
2017-Nov-15 16:00N 55°11' W 001°12'612.1
2017-Nov-15 15:30N 55°05' W 001°11'611.9
2017-Nov-15 15:00N 54°59' W 001°08'611.8
2017-Nov-15 14:30N 54°54' W 001°06'611.7
2017-Nov-15 14:00N 54°48' W 001°05'611.6
2017-Nov-15 13:30N 54°42' W 001°06'  
2017-Nov-12 14:30N 54°39' W 001°08'3 6.6
2017-Nov-12 14:00N 54°41' W 001°04'2 3.7
2017-Nov-12 13:30N 54°41' W 001°01'1 1.1
2017-Nov-12 13:00N 54°42' W 001°01'0 0.2
2017-Nov-12 12:27N 54°42' W 001°01'0 0.0
2017-Nov-12 11:54N 54°42' W 001°01'0 0.0
2017-Nov-12 11:27N 54°42' W 001°01'0 0.0
2017-Nov-12 10:57N 54°42' W 001°01'0 0.0
2017-Nov-12 10:27N 54°42' W 001°01'0 0.0
2017-Nov-12 09:57N 54°42' W 001°01'0 0.0
2017-Nov-12 09:30N 54°42' W 001°01'0 0.0
2017-Nov-12 09:00N 54°42' W 001°01'0 0.0
2017-Nov-12 08:30N 54°42' W 001°01'0 0.0
2017-Nov-12 08:00N 54°42' W 001°01'0 0.0
2017-Nov-12 07:30N 54°42' W 001°01'0 0.0
2017-Nov-12 07:00N 54°42' W 001°01'0 0.0
2017-Nov-12 06:30N 54°42' W 001°01'0 0.0
2017-Nov-12 06:00N 54°42' W 001°00'0 0.0
2017-Nov-12 05:30N 54°42' W 001°00'0 0.0
2017-Nov-12 05:00N 54°42' W 001°00'0 0.0
2017-Nov-12 04:30N 54°42' W 001°00'0 0.0
2017-Nov-12 04:00N 54°42' W 001°00'0 0.0
2017-Nov-12 03:30N 54°42' W 001°00'0 0.0
2017-Nov-12 02:51N 54°42' W 001°00'0 0.0
2017-Nov-12 02:21N 54°42' W 001°00'0 0.0
2017-Nov-12 01:51N 54°42' W 001°00'0 0.0
2017-Nov-12 01:24N 54°42' W 001°00'0 0.0
2017-Nov-12 00:54N 54°42' W 001°00'0 0.0
2017-Nov-12 00:24N 54°42' W 001°00'0 0.0
2017-Nov-11 23:54N 54°42' W 001°00'0 0.0
2017-Nov-11 23:24N 54°42' W 001°00'0 0.0
2017-Nov-11 22:54N 54°42' W 001°00'0 0.0
2017-Nov-11 22:27N 54°42' W 001°00'0 0.0
2017-Nov-11 21:57N 54°42' W 001°00'0 0.0
2017-Nov-11 21:27N 54°42' W 001°01'0 0.0
2017-Nov-11 20:57N 54°42' W 001°01'0 0.0
2017-Nov-11 20:27N 54°42' W 001°01'0 0.0
2017-Nov-11 20:00N 54°42' W 001°01'0 0.0
2017-Nov-11 19:30N 54°42' W 001°01'0 0.0
2017-Nov-11 19:00N 54°42' W 001°01'0 0.0
2017-Nov-11 18:30N 54°42' W 001°01'0 0.0
2017-Nov-11 18:00N 54°42' W 001°01'0 0.0
2017-Nov-11 17:30N 54°42' W 001°01'0 0.0
2017-Nov-11 17:00N 54°42' W 001°01'0 0.0
2017-Nov-11 16:18N 54°42' W 001°01'0 0.0
2017-Nov-11 16:00N 54°42' W 001°00'0 0.0
2017-Nov-11 15:30N 54°42' W 001°00'0 0.0
2017-Nov-11 15:00N 54°42' W 001°01'0 0.0
2017-Nov-11 14:21N 54°42' W 001°01'0 0.1
2017-Nov-11 14:00N 54°42' W 001°00'0 0.0
2017-Nov-11 13:30N 54°42' W 001°01'0 0.0
2017-Nov-11 12:51N 54°42' W 001°00'0 0.0
2017-Nov-11 12:21N 54°42' W 001°00'0 0.0
2017-Nov-11 11:51N 54°42' W 001°00'0 0.0
2017-Nov-11 11:24N 54°42' W 001°00'0 0.0
2017-Nov-11 10:54N 54°42' W 001°00'0 0.0
2017-Nov-11 10:24N 54°42' W 001°00'0 0.0
2017-Nov-11 09:54N 54°42' W 001°00'0 0.0
2017-Nov-11 09:24N 54°42' W 001°00'0 0.0
2017-Nov-11 08:57N 54°42' W 001°00'0 0.0
2017-Nov-11 08:27N 54°42' W 001°00'0 0.0
2017-Nov-11 07:57N 54°42' W 001°00'0 0.0
2017-Nov-11 07:27N 54°42' W 001°00'0 0.0
2017-Nov-11 06:57N 54°42' W 001°00'0 0.0
2017-Nov-11 06:27N 54°42' W 001°00'0 0.0
2017-Nov-11 06:00N 54°42' W 001°00'0 0.0
2017-Nov-11 05:30N 54°42' W 001°00'0 0.0
2017-Nov-11 05:00N 54°42' W 001°00'0 0.1
2017-Nov-11 04:30N 54°42' W 001°00'0 0.1
2017-Nov-11 04:00N 54°42' W 001°00'0 0.0
2017-Nov-11 03:30N 54°42' W 001°00'0 0.0
2017-Nov-11 03:00N 54°42' W 001°00'0 0.1
2017-Nov-11 02:30N 54°42' W 001°00'0 0.0
2017-Nov-11 01:48N 54°42' W 001°00'0 0.1
2017-Nov-11 01:30N 54°42' W 001°00'0 0.0
2017-Nov-11 01:00N 54°42' W 001°00'0 0.0
2017-Nov-11 00:30N 54°42' W 001°00'0 0.0
2017-Nov-11 00:00N 54°42' W 001°00'0 0.0
2017-Nov-10 23:30N 54°42' W 001°00'0 0.0
2017-Nov-10 22:51N 54°42' W 001°00'0 0.0
2017-Nov-10 22:18N 54°42' W 001°00'0 0.0
2017-Nov-10 21:51N 54°42' W 001°00'0 0.0
2017-Nov-10 21:24N 54°42' W 001°00'0 0.0
2017-Nov-10 19:54N 54°42' W 001°00'0 0.0
2017-Nov-10 19:12N 54°42' W 001°00'0 0.0
2017-Nov-10 18:57N 54°42' W 001°00'0 0.0
2017-Nov-10 18:27N 54°42' W 001°00'0 0.0
2017-Nov-10 17:57N 54°42' W 001°00'0 0.0
2017-Nov-10 17:24N 54°42' W 001°00'0 0.0
2017-Nov-10 16:54N 54°42' W 001°00'0 0.0
2017-Nov-10 16:09N 54°42' W 001°00'0 0.1
2017-Nov-10 16:00N 54°42' W 001°00'0 0.0
2017-Nov-10 15:27N 54°42' W 001°00'0 0.0
2017-Nov-10 14:57N 54°42' W 001°00'0 0.1
2017-Nov-10 14:30N 54°42' W 001°00'0 0.0
2017-Nov-10 14:00N 54°42' W 001°00'0 0.0
2017-Nov-10 13:18N 54°42' W 001°00'0 0.1
2017-Nov-10 13:00N 54°42' W 001°00'0 0.0
2017-Nov-10 12:30N 54°42' W 001°00'0 0.0
2017-Nov-10 12:00N 54°42' W 001°00'0 0.0
2017-Nov-10 11:30N 54°42' W 001°00'0 0.0
2017-Nov-10 11:00N 54°42' W 001°00'0 0.0
2017-Nov-10 10:21N 54°42' W 001°00'0 0.0
2017-Nov-10 10:00N 54°42' W 001°00'0 0.0
2017-Nov-10 09:21N 54°42' W 001°00'0 0.0
2017-Nov-10 08:51N 54°42' W 001°00'0 0.0
2017-Nov-10 08:21N 54°42' W 001°00'0 0.0
2017-Nov-10 07:54N 54°42' W 001°00'0 0.0
2017-Nov-10 07:24N 54°42' W 001°00'0 0.0
2017-Nov-10 06:54N 54°42' W 001°00'0 0.0
2017-Nov-10 06:24N 54°42' W 001°00'0 0.0
2017-Nov-10 05:54N 54°42' W 001°00'0 0.1
2017-Nov-10 05:27N 54°42' W 001°00'0 0.1
2017-Nov-10 04:57N 54°42' W 001°00'0 0.0
2017-Nov-10 04:24N 54°42' W 001°00'0 0.0
2017-Nov-10 03:57N 54°42' W 001°00'0 0.0
2017-Nov-10 03:27N 54°42' W 001°00'0 0.0
2017-Nov-10 02:45N 54°42' W 001°00'0 0.0
2017-Nov-10 02:30N 54°42' W 001°00'0 0.0
2017-Nov-10 01:57N 54°42' W 001°00'0 0.0
2017-Nov-10 01:30N 54°42' W 001°00'0 0.0
2017-Nov-10 01:00N 54°42' W 001°00'0 0.0
2017-Nov-10 00:30N 54°42' W 001°00'  
Track history (hours):
 
Tides and Currents Weather Stations Pressure Air Temp Water Temp Dewpoint Dewpoint Depression Visibility Wind Speed Wind Dir Waves Ship Positions

Luke

Last reported at 2017-Nov-20 00:30 UTC. Time now 2017-Nov-21 05:58 UTC.
Position N 58°40' W 002°58'.

Length 84 m; draft 5.2 m.

Type: Tanker. MMSI: 255802950.

Date/timePositionNaut miles runAvg speedWind from/ knotsBaromVisibWave heightAir tempDewpointWater temp
2017-Nov-20 00:30N 58°40' W 002°58'611.4
2017-Nov-20 00:00N 58°43' W 003°07'713.0
2017-Nov-19 23:29N 58°43' W 003°20'613.0
2017-Nov-19 23:00N 58°42' W 003°32'5412.5
2017-Nov-19 18:40N 58°32' W 005°14'212.6
2017-Nov-19 18:30N 58°30' W 005°16'612.2
2017-Nov-19 17:59N 58°25' W 005°23'15410.7
2017-Nov-19 03:37N 55°60' W 006°57'111.7
2017-Nov-19 03:30N 55°59' W 006°56'612.1
2017-Nov-19 03:01N 55°53' W 006°51'612.1
2017-Nov-19 02:30N 55°48' W 006°45'612.7
2017-Nov-19 02:00N 55°43' W 006°39'713.7
2017-Nov-19 01:30N 55°37' W 006°32'713.6
2017-Nov-19 01:00N 55°32' W 006°24'713.2
2017-Nov-19 00:30N 55°27' W 006°17'612.3
2017-Nov-19 00:00N 55°25' W 006°06'611.5
2017-Nov-18 23:30N 55°21' W 005°59'611.1
2017-Nov-18 23:00N 55°17' W 005°53'510.1
2017-Nov-18 22:30N 55°13' W 005°49'5 9.8
2017-Nov-18 22:00N 55°08' W 005°46'610.4
2017-Nov-18 21:28N 55°03' W 005°43'5 9.8
2017-Nov-18 20:55N 54°57' W 005°41'4 9.7
2017-Nov-18 20:30N 54°53' W 005°40'510.0
2017-Nov-18 20:00N 54°48' W 005°38'511.0
2017-Nov-18 19:30N 54°43' W 005°42'611.3
2017-Nov-18 19:00N 54°40' W 005°50'4 0.4
2017-Nov-18 08:20N 54°37' W 005°53'0 0.0
2017-Nov-18 07:44N 54°37' W 005°53'0 0.0
2017-Nov-18 01:32N 54°37' W 005°53'0 0.1
2017-Nov-18 01:27N 54°37' W 005°53'1 1.7
2017-Nov-18 00:59N 54°38' W 005°53'510.3
2017-Nov-18 00:30N 54°41' W 005°47'4 8.5
2017-Nov-18 00:00N 54°44' W 005°41'510.4
2017-Nov-17 23:30N 54°49' W 005°39'611.5
2017-Nov-17 23:00N 54°54' W 005°40'612.1
2017-Nov-17 22:30N 55°00' W 005°42'712.9
2017-Nov-17 22:00N 55°06' W 005°48'714.0
2017-Nov-17 21:30N 55°11' W 005°56'715.0
2017-Nov-17 21:00N 55°18' W 006°03'713.8
2017-Nov-17 20:30N 55°22' W 006°12'612.8
2017-Nov-17 20:01N 55°26' W 006°22'612.7
2017-Nov-17 19:31N 55°31' W 006°27'713.2
2017-Nov-17 19:00N 55°37' W 006°33'713.8
2017-Nov-17 18:30N 55°43' W 006°40'613.0
2017-Nov-17 18:00N 55°48' W 006°45'611.8
2017-Nov-17 17:30N 55°54' W 006°50'611.1
2017-Nov-17 16:59N 55°58' W 006°57'150 9.5
2017-Nov-17 01:10N 58°21' W 005°37'8 8.1
2017-Nov-17 00:07N 58°28' W 005°26'2 7.4
2017-Nov-16 23:54N 58°29' W 005°23'3 7.9
2017-Nov-16 23:29N 58°31' W 005°19'25 6.2
2017-Nov-16 19:23N 58°39' W 004°32'2 5.1
2017-Nov-16 19:00N 58°39' W 004°29'3 5.4
2017-Nov-16 18:30N 58°38' W 004°24'3 5.1
2017-Nov-16 18:00N 58°38' W 004°19'3 5.1
2017-Nov-16 17:30N 58°39' W 004°14'3 5.1
2017-Nov-16 17:00N 58°39' W 004°09'2 4.8
2017-Nov-16 16:30N 58°39' W 004°04'2 4.8
2017-Nov-16 16:00N 58°40' W 003°60'3 5.5
2017-Nov-16 15:30N 58°40' W 003°54'3 5.4
2017-Nov-16 15:00N 58°40' W 003°49'3 5.3
2017-Nov-16 14:30N 58°40' W 003°44'3 5.6
2017-Nov-16 14:00N 58°40' W 003°39'3 5.8
2017-Nov-16 13:30N 58°40' W 003°33'3 7.0
2017-Nov-16 13:00N 58°41' W 003°27'4 7.0
2017-Nov-16 12:30N 58°42' W 003°20'3 6.9
2017-Nov-16 12:00N 58°42' W 003°13'4 7.8
2017-Nov-16 11:30N 58°42' W 003°06'510.0
2017-Nov-16 11:00N 58°39' W 002°59'4 8.6
2017-Nov-16 10:30N 58°36' W 002°53'4 7.7
2017-Nov-16 10:00N 58°32' W 002°49'5 9.2
2017-Nov-16 09:30N 58°29' W 002°44'4010.0
2017-Nov-16 05:32N 57°57' W 002°00'212.1
2017-Nov-16 05:20N 57°54' W 001°58'412.7
2017-Nov-16 05:00N 57°51' W 001°53'713.1
2017-Nov-16 04:30N 57°46' W 001°46'612.9
2017-Nov-16 04:00N 57°40' W 001°40'713.0
2017-Nov-16 03:30N 57°34' W 001°35'713.1
2017-Nov-16 03:00N 57°28' W 001°33'712.8
2017-Nov-16 02:28N 57°21' W 001°32'612.7
2017-Nov-16 02:00N 57°15' W 001°31'612.5
2017-Nov-16 01:30N 57°09' W 001°30'5211.9
2017-Nov-15 21:09N 56°17' W 001°20'212.3
2017-Nov-15 21:00N 56°16' W 001°20'612.5
2017-Nov-15 20:29N 56°09' W 001°19'2213.1
2017-Nov-15 18:47N 55°47' W 001°15'413.3
2017-Nov-15 18:29N 55°43' W 001°16'613.4
2017-Nov-15 18:00N 55°37' W 001°16'713.2
2017-Nov-15 17:30N 55°30' W 001°15'612.9
2017-Nov-15 17:00N 55°24' W 001°14'612.5
2017-Nov-15 16:30N 55°17' W 001°13'612.3
2017-Nov-15 16:00N 55°11' W 001°12'612.1
2017-Nov-15 15:30N 55°05' W 001°11'611.9
2017-Nov-15 15:00N 54°59' W 001°08'611.8
2017-Nov-15 14:30N 54°54' W 001°06'611.7
2017-Nov-15 14:00N 54°48' W 001°05'611.6
2017-Nov-15 13:30N 54°42' W 001°06'  
2017-Nov-12 14:30N 54°39' W 001°08'3 6.6
2017-Nov-12 14:00N 54°41' W 001°04'2 3.7
2017-Nov-12 13:30N 54°41' W 001°01'1 1.1
2017-Nov-12 13:00N 54°42' W 001°01'0 0.2
2017-Nov-12 12:27N 54°42' W 001°01'0 0.0
2017-Nov-12 11:54N 54°42' W 001°01'0 0.0
2017-Nov-12 11:27N 54°42' W 001°01'0 0.0
2017-Nov-12 10:57N 54°42' W 001°01'0 0.0
2017-Nov-12 10:27N 54°42' W 001°01'0 0.0
2017-Nov-12 09:57N 54°42' W 001°01'0 0.0
2017-Nov-12 09:30N 54°42' W 001°01'0 0.0
2017-Nov-12 09:00N 54°42' W 001°01'0 0.0
2017-Nov-12 08:30N 54°42' W 001°01'0 0.0
2017-Nov-12 08:00N 54°42' W 001°01'0 0.0
2017-Nov-12 07:30N 54°42' W 001°01'0 0.0
2017-Nov-12 07:00N 54°42' W 001°01'0 0.0
2017-Nov-12 06:30N 54°42' W 001°01'0 0.0
2017-Nov-12 06:00N 54°42' W 001°00'0 0.0
2017-Nov-12 05:30N 54°42' W 001°00'0 0.0
2017-Nov-12 05:00N 54°42' W 001°00'0 0.0
2017-Nov-12 04:30N 54°42' W 001°00'0 0.0
2017-Nov-12 04:00N 54°42' W 001°00'0 0.0
2017-Nov-12 03:30N 54°42' W 001°00'0 0.0
2017-Nov-12 02:51N 54°42' W 001°00'0 0.0
2017-Nov-12 02:21N 54°42' W 001°00'0 0.0
2017-Nov-12 01:51N 54°42' W 001°00'0 0.0
2017-Nov-12 01:24N 54°42' W 001°00'0 0.0
2017-Nov-12 00:54N 54°42' W 001°00'0 0.0
2017-Nov-12 00:24N 54°42' W 001°00'0 0.0
2017-Nov-11 23:54N 54°42' W 001°00'0 0.0
2017-Nov-11 23:24N 54°42' W 001°00'0 0.0
2017-Nov-11 22:54N 54°42' W 001°00'0 0.0
2017-Nov-11 22:27N 54°42' W 001°00'0 0.0
2017-Nov-11 21:57N 54°42' W 001°00'0 0.0
2017-Nov-11 21:27N 54°42' W 001°01'0 0.0
2017-Nov-11 20:57N 54°42' W 001°01'0 0.0
2017-Nov-11 20:27N 54°42' W 001°01'0 0.0
2017-Nov-11 20:00N 54°42' W 001°01'0 0.0
2017-Nov-11 19:30N 54°42' W 001°01'0 0.0
2017-Nov-11 19:00N 54°42' W 001°01'0 0.0
2017-Nov-11 18:30N 54°42' W 001°01'0 0.0
2017-Nov-11 18:00N 54°42' W 001°01'0 0.0
2017-Nov-11 17:30N 54°42' W 001°01'0 0.0
2017-Nov-11 17:00N 54°42' W 001°01'0 0.0
2017-Nov-11 16:18N 54°42' W 001°01'0 0.0
2017-Nov-11 16:00N 54°42' W 001°00'0 0.0
2017-Nov-11 15:30N 54°42' W 001°00'0 0.0
2017-Nov-11 15:00N 54°42' W 001°01'0 0.0
2017-Nov-11 14:21N 54°42' W 001°01'0 0.1
2017-Nov-11 14:00N 54°42' W 001°00'0 0.0
2017-Nov-11 13:30N 54°42' W 001°01'0 0.0
2017-Nov-11 12:51N 54°42' W 001°00'0 0.0
2017-Nov-11 12:21N 54°42' W 001°00'0 0.0
2017-Nov-11 11:51N 54°42' W 001°00'0 0.0
2017-Nov-11 11:24N 54°42' W 001°00'0 0.0
2017-Nov-11 10:54N 54°42' W 001°00'0 0.0
2017-Nov-11 10:24N 54°42' W 001°00'0 0.0
2017-Nov-11 09:54N 54°42' W 001°00'0 0.0
2017-Nov-11 09:24N 54°42' W 001°00'0 0.0
2017-Nov-11 08:57N 54°42' W 001°00'0 0.0
2017-Nov-11 08:27N 54°42' W 001°00'0 0.0
2017-Nov-11 07:57N 54°42' W 001°00'0 0.0
2017-Nov-11 07:27N 54°42' W 001°00'0 0.0
2017-Nov-11 06:57N 54°42' W 001°00'0 0.0
2017-Nov-11 06:27N 54°42' W 001°00'0 0.0
2017-Nov-11 06:00N 54°42' W 001°00'0 0.0
2017-Nov-11 05:30N 54°42' W 001°00'0 0.0
2017-Nov-11 05:00N 54°42' W 001°00'0 0.1
2017-Nov-11 04:30N 54°42' W 001°00'0 0.1
2017-Nov-11 04:00N 54°42' W 001°00'0 0.0
2017-Nov-11 03:30N 54°42' W 001°00'0 0.0
2017-Nov-11 03:00N 54°42' W 001°00'0 0.1
2017-Nov-11 02:30N 54°42' W 001°00'0 0.0
2017-Nov-11 01:48N 54°42' W 001°00'0 0.1
2017-Nov-11 01:30N 54°42' W 001°00'0 0.0
2017-Nov-11 01:00N 54°42' W 001°00'0 0.0
2017-Nov-11 00:30N 54°42' W 001°00'0 0.0
2017-Nov-11 00:00N 54°42' W 001°00'0 0.0
2017-Nov-10 23:30N 54°42' W 001°00'0 0.0
2017-Nov-10 22:51N 54°42' W 001°00'0 0.0
2017-Nov-10 22:18N 54°42' W 001°00'0 0.0
2017-Nov-10 21:51N 54°42' W 001°00'0 0.0
2017-Nov-10 21:24N 54°42' W 001°00'0 0.0
2017-Nov-10 19:54N 54°42' W 001°00'0 0.0
2017-Nov-10 19:12N 54°42' W 001°00'0 0.0
2017-Nov-10 18:57N 54°42' W 001°00'0 0.0
2017-Nov-10 18:27N 54°42' W 001°00'0 0.0
2017-Nov-10 17:57N 54°42' W 001°00'0 0.0
2017-Nov-10 17:24N 54°42' W 001°00'0 0.0
2017-Nov-10 16:54N 54°42' W 001°00'0 0.0
2017-Nov-10 16:09N 54°42' W 001°00'0 0.1
2017-Nov-10 16:00N 54°42' W 001°00'0 0.0
2017-Nov-10 15:27N 54°42' W 001°00'0 0.0
2017-Nov-10 14:57N 54°42' W 001°00'0 0.1
2017-Nov-10 14:30N 54°42' W 001°00'0 0.0
2017-Nov-10 14:00N 54°42' W 001°00'0 0.0
2017-Nov-10 13:18N 54°42' W 001°00'0 0.1
2017-Nov-10 13:00N 54°42' W 001°00'0 0.0
2017-Nov-10 12:30N 54°42' W 001°00'0 0.0
2017-Nov-10 12:00N 54°42' W 001°00'0 0.0
2017-Nov-10 11:30N 54°42' W 001°00'0 0.0
2017-Nov-10 11:00N 54°42' W 001°00'0 0.0
2017-Nov-10 10:21N 54°42' W 001°00'0 0.0
2017-Nov-10 10:00N 54°42' W 001°00'0 0.0
2017-Nov-10 09:21N 54°42' W 001°00'0 0.0
2017-Nov-10 08:51N 54°42' W 001°00'0 0.0
2017-Nov-10 08:21N 54°42' W 001°00'0 0.0
2017-Nov-10 07:54N 54°42' W 001°00'0 0.0
2017-Nov-10 07:24N 54°42' W 001°00'0 0.0
2017-Nov-10 06:54N 54°42' W 001°00'0 0.0
2017-Nov-10 06:24N 54°42' W 001°00'0 0.0
2017-Nov-10 05:54N 54°42' W 001°00'0 0.1
2017-Nov-10 05:27N 54°42' W 001°00'0 0.1
2017-Nov-10 04:57N 54°42' W 001°00'0 0.0
2017-Nov-10 04:24N 54°42' W 001°00'0 0.0
2017-Nov-10 03:57N 54°42' W 001°00'0 0.0
2017-Nov-10 03:27N 54°42' W 001°00'0 0.0
2017-Nov-10 02:45N 54°42' W 001°00'0 0.0
2017-Nov-10 02:30N 54°42' W 001°00'0 0.0
2017-Nov-10 01:57N 54°42' W 001°00'0 0.0
2017-Nov-10 01:30N 54°42' W 001°00'0 0.0
2017-Nov-10 01:00N 54°42' W 001°00'0 0.0
2017-Nov-10 00:30N 54°42' W 001°00'  

Dump ship's entire track history